Time;durP1;ratioP1;P1;durP2;ratioP2;P2;SDS_P1;SDS_P2;PMS_P1;PMS_P2;Temp;Humidity;BMP_temperature;BMP_pressure;BME280_temperature;BME280_humidity;BME280_pressure;Samples;Min_cycle;Max_cycle;Signal;HPM_P1;HPM_P2
2024/02/20 00:01:29;;;;;;;66.93;26.85;;;;;;;3.59;82.69;95299.19;4990408;28;20034;-78
2024/02/20 00:03:54;;;;;;;57.08;24.98;;;;;;;3.87;82.18;95305.59;4991659;28;20036;-77
2024/02/20 00:06:20;;;;;;;62.05;25.67;;;;;;;3.91;81.76;95299.41;5006813;28;20040;-78
2024/02/20 00:08:46;;;;;;;61.55;26.85;;;;;;;3.92;81.73;95301.88;4996764;28;20072;-78
2024/02/20 00:11:11;;;;;;;65.35;27.75;;;;;;;3.99;81.44;95308.41;5016399;28;20235;-78
2024/02/20 00:13:37;;;;;;;65.70;26.88;;;;;;;4.03;81.30;95307.31;5032029;28;20029;-78
2024/02/20 00:16:03;;;;;;;63.25;27.35;;;;;;;3.95;81.19;95304.31;5031248;28;20032;-78
2024/02/20 00:18:28;;;;;;;60.38;25.27;;;;;;;4.06;80.83;95298.63;4998260;28;20426;-77
2024/02/20 00:20:54;;;;;;;64.75;27.38;;;;;;;4.21;80.24;95302.22;5033518;28;20033;-78
2024/02/20 00:23:19;;;;;;;66.78;26.10;;;;;;;4.10;80.26;95310.44;5033205;28;20040;-78
2024/02/20 00:25:45;;;;;;;60.40;25.10;;;;;;;4.27;80.32;95301.88;5030668;28;20029;-78
2024/02/20 00:28:12;;;;;;;55.88;25.52;;;;;;;4.23;80.17;95301.22;5033720;28;20029;-78
2024/02/20 00:30:37;;;;;;;63.35;26.35;;;;;;;4.08;80.80;95309.69;5014482;28;20113;-78
2024/02/20 00:33:03;;;;;;;61.10;25.73;;;;;;;4.28;80.05;95307.84;5015829;28;20041;-78
2024/02/20 00:35:28;;;;;;;63.80;25.95;;;;;;;4.23;80.55;95305.50;5029430;28;20136;-78
2024/02/20 00:37:54;;;;;;;64.22;26.75;;;;;;;4.02;81.02;95287.69;5015954;28;20037;-78
2024/02/20 00:40:19;;;;;;;68.03;26.98;;;;;;;4.22;80.94;95296.13;5014969;28;20044;-78
2024/02/20 00:42:45;;;;;;;62.03;26.50;;;;;;;4.09;80.81;95279.66;5015393;28;20025;-78
2024/02/20 00:45:11;;;;;;;68.15;27.63;;;;;;;3.93;81.46;95279.59;5030477;28;20038;-78
2024/02/20 00:47:36;;;;;;;66.20;26.70;;;;;;;4.24;80.56;95281.47;4994659;28;20026;-77
2024/02/20 00:50:02;;;;;;;62.15;26.77;;;;;;;4.16;80.59;95269.00;4995876;28;20029;-78
2024/02/20 00:52:27;;;;;;;73.72;27.52;;;;;;;4.07;81.27;95271.19;5007539;28;20044;-78
2024/02/20 00:54:53;;;;;;;62.75;25.25;;;;;;;4.30;80.87;95276.00;5030202;28;20427;-78
2024/02/20 00:57:18;;;;;;;59.20;25.55;;;;;;;4.29;80.33;95271.78;5014228;28;20025;-78
2024/02/20 00:59:44;;;;;;;57.72;24.80;;;;;;;4.28;80.26;95277.00;4999012;28;20099;-78
2024/02/20 01:02:10;;;;;;;54.67;24.83;;;;;;;4.16;80.63;95268.16;5033309;28;20083;-78
2024/02/20 01:04:39;;;;;;;54.88;24.50;;;;;;;4.06;80.95;95261.81;5011627;28;20037;-78
2024/02/20 01:07:05;;;;;;;54.83;24.42;;;;;;;3.92;80.38;95252.22;5015242;28;20033;-78
2024/02/20 01:09:30;;;;;;;62.05;24.65;;;;;;;3.86;80.82;95248.22;4967746;28;20053;-79
2024/02/20 01:11:56;;;;;;;55.85;24.98;;;;;;;4.00;80.29;95252.66;5015411;28;20499;-78
2024/02/20 01:14:21;;;;;;;55.72;23.33;;;;;;;4.07;80.11;95251.47;5012589;28;20123;-79
2024/02/20 01:16:47;;;;;;;58.33;24.48;;;;;;;4.02;79.82;95248.28;5031818;28;20025;-79
2024/02/20 01:19:12;;;;;;;59.63;23.10;;;;;;;3.70;80.69;95245.56;5032623;28;20037;-79
2024/02/20 01:21:38;;;;;;;52.58;22.13;;;;;;;3.57;80.49;95245.34;5013001;28;20518;-79
2024/02/20 01:24:03;;;;;;;54.28;23.40;;;;;;;3.55;80.82;95242.00;4995656;28;20026;-78
2024/02/20 01:26:30;;;;;;;52.35;23.00;;;;;;;3.73;80.27;95247.16;5010816;28;20037;-79
2024/02/20 01:28:56;;;;;;;50.05;22.00;;;;;;;3.59;80.10;95237.53;5032578;28;20037;-78
2024/02/20 01:31:21;;;;;;;49.45;20.83;;;;;;;3.48;80.04;95214.97;5030998;28;20034;-78
2024/02/20 01:33:47;;;;;;;52.08;21.88;;;;;;;3.72;79.59;95232.66;5032699;28;20026;-78
2024/02/20 01:36:12;;;;;;;51.05;21.85;;;;;;;3.64;79.32;95232.19;5007931;28;20468;-78
2024/02/20 01:38:38;;;;;;;44.90;20.27;;;;;;;3.64;80.36;95219.34;5010657;28;20030;-79
2024/02/20 01:41:03;;;;;;;48.72;21.38;;;;;;;3.75;79.97;95227.34;5011197;28;20496;-79
2024/02/20 01:43:29;;;;;;;48.33;21.02;;;;;;;3.76;79.52;95221.28;4993830;28;20492;-79
2024/02/20 01:45:54;;;;;;;47.08;21.38;;;;;;;3.73;79.90;95224.03;5008346;28;20029;-79
2024/02/20 01:48:20;;;;;;;51.60;21.48;;;;;;;3.84;79.79;95228.63;4977548;28;20109;-77
2024/02/20 01:50:45;;;;;;;54.78;23.10;;;;;;;3.81;79.64;95216.75;4994960;28;20041;-78
2024/02/20 01:53:11;;;;;;;52.22;24.23;;;;;;;3.75;79.77;95211.94;4978127;28;20424;-79
2024/02/20 01:55:36;;;;;;;50.45;21.38;;;;;;;3.74;79.94;95207.72;4991125;28;20033;-79
2024/02/20 01:58:02;;;;;;;51.70;22.52;;;;;;;3.65;80.53;95208.16;5011252;28;20488;-78
2024/02/20 02:00:27;;;;;;;50.30;22.52;;;;;;;3.66;80.79;95200.38;5009245;28;20045;-78
2024/02/20 02:02:53;;;;;;;55.42;22.15;;;;;;;3.81;80.93;95219.31;5011993;28;20416;-77
2024/02/20 02:05:19;;;;;;;52.40;23.25;;;;;;;3.81;80.87;95229.59;5006697;28;20030;-78
2024/02/20 02:07:44;;;;;;;52.20;23.38;;;;;;;3.79;80.95;95214.28;5010953;28;20515;-78
2024/02/20 02:10:10;;;;;;;56.95;22.65;;;;;;;3.77;81.10;95221.22;5011843;28;20026;-79
2024/02/20 02:12:35;;;;;;;48.40;22.52;;;;;;;3.79;81.20;95209.16;5009827;28;20026;-79
2024/02/20 02:15:00;;;;;;;49.30;22.05;;;;;;;3.94;80.92;95212.69;4988099;28;20041;-78
2024/02/20 02:17:26;;;;;;;46.15;20.83;;;;;;;3.87;80.81;95211.31;4988446;28;20029;-79
2024/02/20 02:19:51;;;;;;;46.05;20.92;;;;;;;3.68;81.60;95211.41;5012204;28;20544;-79
2024/02/20 02:22:17;;;;;;;47.30;21.95;;;;;;;3.69;81.80;95209.66;5009197;28;20025;-78
2024/02/20 02:24:43;;;;;;;45.35;21.63;;;;;;;3.75;81.50;95206.78;4991534;28;20045;-79
2024/02/20 02:27:08;;;;;;;42.60;20.13;;;;;;;3.74;81.22;95189.72;5010237;28;20030;-78
2024/02/20 02:29:34;;;;;;;44.38;21.23;;;;;;;3.66;81.73;95202.94;5009908;28;20030;-79
2024/02/20 02:31:59;;;;;;;45.40;20.30;;;;;;;3.75;81.62;95214.50;5009177;28;20034;-79
2024/02/20 02:34:29;;;;;;;45.28;20.35;;;;;;;3.62;82.03;95211.69;4991247;28;20049;-79
2024/02/20 02:36:54;;;;;;;39.70;19.45;;;;;;;3.82;81.47;95205.59;5009442;28;20054;-79
2024/02/20 02:39:22;;;;;;;47.08;20.10;;;;;;;3.62;81.75;95196.28;5010620;28;20026;-79
2024/02/20 02:41:48;;;;;;;39.95;19.60;;;;;;;3.81;81.67;95206.47;4977816;28;20029;-78
2024/02/20 02:44:14;;;;;;;39.45;18.63;;;;;;;3.89;81.41;95211.25;5009626;28;20477;-78
2024/02/20 02:46:39;;;;;;;47.13;19.75;;;;;;;3.96;80.99;95210.88;4990881;28;20033;-78
2024/02/20 02:49:07;;;;;;;44.60;20.40;;;;;;;3.94;80.75;95204.97;5010018;28;20029;-79
2024/02/20 02:51:32;;;;;;;41.10;19.33;;;;;;;3.77;80.77;95197.28;5008539;28;20480;-79
2024/02/20 02:53:58;;;;;;;38.70;18.98;;;;;;;3.81;80.82;95211.63;4993875;28;20037;-78
2024/02/20 02:56:23;;;;;;;41.30;20.58;;;;;;;3.83;81.03;95214.97;5007083;28;20496;-79
2024/02/20 02:58:49;;;;;;;44.63;20.40;;;;;;;3.82;80.92;95213.31;4993874;28;20519;-79
2024/02/20 03:01:14;;;;;;;36.78;17.98;;;;;;;3.88;80.74;95200.13;5010910;28;20534;-79
2024/02/20 03:03:39;;;;;;;37.17;18.20;;;;;;;3.78;80.81;95202.31;4992591;28;20026;-79
2024/02/20 03:06:08;;;;;;;35.88;17.90;;;;;;;3.73;81.41;95209.47;5007315;28;20045;-79
2024/02/20 03:08:33;;;;;;;43.78;19.15;;;;;;;3.86;80.83;95212.22;5008768;28;20030;-79
2024/02/20 03:10:59;;;;;;;37.20;18.33;;;;;;;3.93;80.97;95221.31;5009475;28;20119;-78
2024/02/20 03:13:24;;;;;;;38.05;18.70;;;;;;;4.02;80.60;95220.00;4988781;28;20166;-79
2024/02/20 03:15:50;;;;;;;35.20;17.65;;;;;;;4.20;79.92;95218.22;4987364;28;20045;-79
2024/02/20 03:18:15;;;;;;;39.10;19.33;;;;;;;4.27;78.79;95217.00;5000830;28;20023;-79
2024/02/20 03:20:42;;;;;;;32.10;16.85;;;;;;;4.31;79.20;95215.09;5005618;28;20104;-79
2024/02/20 03:23:08;;;;;;;38.03;18.05;;;;;;;4.26;79.33;95228.19;5002701;28;20516;-78
2024/02/20 03:25:33;;;;;;;36.33;16.77;;;;;;;4.19;79.40;95217.41;5006632;28;20037;-79
2024/02/20 03:28:00;;;;;;;36.00;17.45;;;;;;;4.33;79.13;95234.69;5009735;28;20100;-79
2024/02/20 03:30:28;;;;;;;32.40;16.77;;;;;;;4.20;78.99;95233.66;5008122;28;20029;-79
2024/02/20 03:32:53;;;;;;;33.38;16.85;;;;;;;4.21;79.42;95228.44;5010293;28;20040;-78
2024/02/20 03:35:22;;;;;;;29.85;15.73;;;;;;;4.18;79.22;95235.47;5012229;28;20061;-79
2024/02/20 03:37:48;;;;;;;30.70;16.88;;;;;;;4.15;79.36;95243.34;5012179;28;20518;-78
2024/02/20 03:40:15;;;;;;;29.83;16.50;;;;;;;4.14;79.19;95227.09;5012785;28;20038;-79
2024/02/20 03:42:40;;;;;;;31.30;16.02;;;;;;;4.16;79.40;95243.28;4994961;28;20087;-78
2024/02/20 03:45:06;;;;;;;25.67;14.82;;;;;;;4.30;79.26;95244.31;4989439;28;20034;-78
2024/02/20 03:47:31;;;;;;;29.33;15.95;;;;;;;4.09;79.64;95241.09;5025448;28;20606;-79
2024/02/20 03:49:57;;;;;;;31.55;17.27;;;;;;;3.97;80.36;95250.25;5000794;28;20527;-78
2024/02/20 03:52:22;;;;;;;29.60;16.48;;;;;;;4.08;80.00;95239.44;5033266;28;20026;-79
2024/02/20 03:54:48;;;;;;;30.42;17.10;;;;;;;4.24;79.54;95256.56;4996622;28;20359;-79
2024/02/20 03:57:14;;;;;;;28.35;15.00;;;;;;;4.14;79.73;95245.09;5034295;28;20044;-78
2024/02/20 03:59:39;;;;;;;31.15;17.02;;;;;;;4.15;79.54;95246.78;5015388;28;20041;-78
2024/02/20 04:02:05;;;;;;;31.45;17.17;;;;;;;4.13;80.40;95252.91;5016352;28;20034;-79
2024/02/20 04:04:30;;;;;;;34.85;17.40;;;;;;;4.10;80.07;95260.75;4996606;28;20037;-79
2024/02/20 04:06:55;;;;;;;34.88;17.58;;;;;;;4.17;80.58;95264.69;5015575;28;20036;-79
2024/02/20 04:09:21;;;;;;;36.65;17.58;;;;;;;4.12;80.35;95266.63;5033980;28;20044;-78
2024/02/20 04:11:46;;;;;;;33.95;18.60;;;;;;;4.10;80.19;95263.34;4998937;28;20080;-79
2024/02/20 04:14:12;;;;;;;37.75;19.40;;;;;;;4.17;80.62;95259.53;5033317;28;20415;-79
2024/02/20 04:16:37;;;;;;;40.75;20.85;;;;;;;4.22;80.41;95263.53;5033938;28;20496;-79
2024/02/20 04:19:02;;;;;;;42.55;21.67;;;;;;;4.37;80.07;95264.47;5034408;28;20022;-78
2024/02/20 04:21:28;;;;;;;35.30;18.27;;;;;;;4.38;80.07;95258.44;5016579;28;20014;-79
2024/02/20 04:23:53;;;;;;;37.00;18.10;;;;;;;4.38;79.84;95249.91;5016635;28;20484;-78
2024/02/20 04:26:18;;;;;;;35.55;18.10;;;;;;;4.57;79.63;95268.63;5034131;28;20168;-79
2024/02/20 04:28:44;;;;;;;39.97;21.23;;;;;;;4.63;79.10;95262.31;5034303;28;20033;-79
2024/02/20 04:31:09;;;;;;;30.88;17.05;;;;;;;4.52;79.37;95256.91;5034610;28;20049;-79
2024/02/20 04:33:35;;;;;;;41.85;21.23;;;;;;;4.33;79.68;95260.41;5016473;28;20026;-79
2024/02/20 04:36:00;;;;;;;40.40;21.80;;;;;;;4.27;80.28;95258.16;5034116;28;20054;-79
2024/02/20 04:38:25;;;;;;;39.88;20.40;;;;;;;4.36;79.97;95246.56;4999234;28;20029;-79
2024/02/20 04:40:51;;;;;;;44.15;23.63;;;;;;;4.26;80.43;95246.19;5034340;28;20033;-79
2024/02/20 04:43:17;;;;;;;39.67;20.83;;;;;;;4.29;80.29;95252.94;5000172;28;20383;-78
2024/02/20 04:45:44;;;;;;;42.63;21.77;;;;;;;4.24;80.61;95251.44;4999972;28;20506;-79
2024/02/20 04:48:09;;;;;;;45.28;23.02;;;;;;;4.18;80.90;95254.31;5016478;28;20653;-78
2024/02/20 04:50:35;;;;;;;42.58;22.00;;;;;;;4.17;80.93;95250.06;5034211;28;20034;-79
2024/02/20 04:53:00;;;;;;;38.42;20.45;;;;;;;4.23;81.08;95248.94;5033833;28;20040;-79
2024/02/20 04:55:26;;;;;;;40.22;21.25;;;;;;;4.15;81.24;95240.78;5014903;28;20033;-79
2024/02/20 04:57:52;;;;;;;42.17;21.20;;;;;;;3.99;81.31;95213.28;5033894;28;20071;-78
2024/02/20 05:00:18;;;;;;;45.33;22.52;;;;;;;4.23;80.80;95234.34;5016136;28;20041;-78
2024/02/20 05:02:43;;;;;;;39.88;20.60;;;;;;;4.26;80.97;95233.34;5000065;28;20036;-77
2024/02/20 05:05:09;;;;;;;42.88;21.27;;;;;;;4.08;81.84;95234.28;5015964;28;20447;-79
2024/02/20 05:07:34;;;;;;;39.03;21.17;;;;;;;3.84;81.27;95218.34;5033619;28;20030;-79
2024/02/20 05:10:00;;;;;;;36.97;20.83;;;;;;;4.09;80.88;95241.09;5015733;28;20419;-78
2024/02/20 05:12:25;;;;;;;33.95;19.90;;;;;;;4.12;80.73;95243.50;5015891;28;20029;-79
2024/02/20 05:14:50;;;;;;;36.92;19.35;;;;;;;4.07;80.53;95242.91;5015631;28;20037;-79
2024/02/20 05:17:16;;;;;;;33.08;19.25;;;;;;;3.87;81.12;95242.16;5015771;28;20029;-79
2024/02/20 05:19:41;;;;;;;39.47;19.88;;;;;;;3.78;81.42;95245.19;5033393;28;20033;-78
2024/02/20 05:22:07;;;;;;;34.83;18.77;;;;;;;3.80;81.14;95245.94;5033540;28;20034;-77
2024/02/20 05:24:35;;;;;;;35.15;18.85;;;;;;;3.86;81.03;95243.06;5033172;28;20096;-79
2024/02/20 05:27:03;;;;;;;33.97;17.55;;;;;;;3.77;80.99;95240.97;5015605;28;20021;-79
2024/02/20 05:29:31;;;;;;;28.50;16.92;;;;;;;3.63;81.60;95238.25;4999351;28;20066;-79
2024/02/20 05:31:57;;;;;;;32.10;17.38;;;;;;;3.60;81.62;95240.97;5015489;28;20091;-78
2024/02/20 05:34:22;;;;;;;33.42;17.40;;;;;;;3.74;81.28;95246.25;5015223;28;20419;-79
2024/02/20 05:36:48;;;;;;;30.45;17.02;;;;;;;3.57;81.45;95244.50;5012339;28;20566;-78
2024/02/20 05:39:13;;;;;;;29.27;15.68;;;;;;;3.33;82.58;95246.50;5011603;28;20069;-79
2024/02/20 05:41:39;;;;;;;33.70;17.35;;;;;;;3.57;82.27;95249.66;5013247;28;20028;-77
2024/02/20 05:44:04;;;;;;;31.73;17.02;;;;;;;3.68;81.91;95257.66;5012013;28;20022;-78
2024/02/20 05:46:31;;;;;;;31.42;17.13;;;;;;;3.56;82.10;95259.06;5003380;28;20038;-76
2024/02/20 05:48:56;;;;;;;32.40;17.35;;;;;;;3.62;81.69;95262.25;5011863;28;20149;-75
2024/02/20 05:51:23;;;;;;;33.08;18.55;;;;;;;3.65;81.61;95256.97;4998700;28;20058;-75
2024/02/20 05:53:49;;;;;;;37.05;21.35;;;;;;;3.63;81.86;95269.91;4993742;28;20701;-78
2024/02/20 05:56:15;;;;;;;39.15;21.42;;;;;;;3.69;81.98;95274.75;4995746;28;20117;-78
2024/02/20 05:58:41;;;;;;;36.65;21.75;;;;;;;3.67;82.22;95275.72;5006604;28;20385;-78
2024/02/20 06:01:08;;;;;;;37.28;21.67;;;;;;;3.73;82.07;95275.41;5001063;28;20069;-78
2024/02/20 06:03:37;;;;;;;39.28;22.42;;;;;;;3.77;81.50;95276.94;4996703;28;20058;-79
2024/02/20 06:06:07;;;;;;;36.88;19.83;;;;;;;3.80;81.45;95282.75;4989883;28;20038;-79
2024/02/20 06:08:33;;;;;;;33.92;20.00;;;;;;;3.91;81.43;95294.25;5000263;28;20026;-79
2024/02/20 06:10:58;;;;;;;37.97;21.25;;;;;;;3.80;81.30;95290.47;5001826;28;20038;-78
2024/02/20 06:13:23;;;;;;;35.00;19.95;;;;;;;3.83;81.35;95284.34;5010462;28;20037;-79
2024/02/20 06:15:50;;;;;;;35.63;20.75;;;;;;;3.98;81.40;95299.03;5010727;28;20030;-79
2024/02/20 06:18:15;;;;;;;34.13;19.45;;;;;;;4.14;80.68;95300.84;5009552;28;20037;-79
2024/02/20 06:20:41;;;;;;;36.65;19.35;;;;;;;3.97;80.39;95263.94;5011344;28;20057;-78
2024/02/20 06:23:07;;;;;;;34.35;19.02;;;;;;;4.23;79.51;95305.50;5011028;28;20502;-79
2024/02/20 06:25:32;;;;;;;34.45;20.17;;;;;;;4.06;79.93;95293.50;5011763;28;20033;-79
2024/02/20 06:27:58;;;;;;;76.78;44.63;;;;;;;3.87;81.24;95308.16;5009409;28;20084;-79
2024/02/20 06:30:24;;;;;;;50.47;29.48;;;;;;;3.85;81.68;95310.00;5002193;28;20034;-80
2024/02/20 06:32:49;;;;;;;49.78;28.98;;;;;;;3.90;81.39;95308.88;4988347;28;20412;-79
2024/02/20 06:35:15;;;;;;;45.22;26.30;;;;;;;3.93;80.85;95287.31;4993932;28;20516;-79
2024/02/20 06:37:40;;;;;;;44.42;24.13;;;;;;;4.39;79.89;95311.53;4989034;28;20152;-75
2024/02/20 06:40:06;;;;;;;41.55;22.92;;;;;;;4.65;79.17;95327.41;4994437;28;20048;-75
2024/02/20 06:42:32;;;;;;;36.75;22.15;;;;;;;4.83;78.35;95331.59;4992620;28;20081;-74
2024/02/20 06:44:57;;;;;;;36.33;21.10;;;;;;;4.91;77.72;95324.31;5008348;28;20056;-76
2024/02/20 06:47:23;;;;;;;33.17;20.65;;;;;;;4.90;76.34;95326.97;5010265;28;20026;-75
2024/02/20 06:49:48;;;;;;;36.65;20.92;;;;;;;4.77;77.46;95334.50;5008460;28;20037;-75
2024/02/20 06:52:13;;;;;;;41.75;23.42;;;;;;;4.81;77.43;95332.59;5010757;28;20136;-75
2024/02/20 06:54:39;;;;;;;39.85;24.33;;;;;;;4.82;77.47;95334.25;5009922;28;20910;-75
2024/02/20 06:57:04;;;;;;;36.58;21.95;;;;;;;4.97;77.55;95335.22;5010417;28;20025;-75
2024/02/20 06:59:30;;;;;;;38.08;23.65;;;;;;;5.40;76.65;95335.47;5007914;28;20049;-75
2024/02/20 07:01:55;;;;;;;38.72;22.27;;;;;;;5.22;76.15;95319.28;5009510;28;20416;-75
2024/02/20 07:04:21;;;;;;;41.80;22.67;;;;;;;5.21;76.69;95336.50;5010224;28;20022;-75
2024/02/20 07:06:46;;;;;;;35.75;21.85;;;;;;;5.25;76.82;95343.13;5010417;28;20034;-75
2024/02/20 07:09:12;;;;;;;38.42;21.08;;;;;;;6.25;73.05;95341.03;5009483;28;20037;-72
2024/02/20 07:11:38;;;;;;;40.75;22.25;;;;;;;6.01;73.15;95337.28;4994568;28;20089;-76
2024/02/20 07:14:03;;;;;;;37.80;22.88;;;;;;;6.03;72.74;95338.84;5007475;28;20030;-76
2024/02/20 07:16:29;;;;;;;41.90;23.75;;;;;;;5.96;73.20;95334.13;4994018;28;20026;-76
2024/02/20 07:18:54;;;;;;;38.53;23.35;;;;;;;5.54;74.88;95340.72;5029335;28;20029;-75
2024/02/20 07:21:20;;;;;;;40.55;23.75;;;;;;;5.79;74.32;95343.63;5029835;28;20091;-75
2024/02/20 07:23:45;;;;;;;38.10;22.45;;;;;;;5.96;74.07;95334.13;5030832;28;20036;-76
2024/02/20 07:26:10;;;;;;;45.30;28.15;;;;;;;5.74;73.48;95300.94;5031473;28;20037;-76
2024/02/20 07:28:41;;;;;;;53.10;28.40;;;;;;;5.67;73.70;95308.19;4978711;28;20038;-75
2024/02/20 07:31:06;;;;;;;44.03;25.17;;;;;;;5.90;73.31;95329.28;4991061;28;20041;-75
2024/02/20 07:33:32;;;;;;;45.45;25.45;;;;;;;5.78;74.08;95325.66;4988985;28;20393;-75
2024/02/20 07:35:57;;;;;;;36.85;21.65;;;;;;;5.03;75.59;95329.72;4999709;28;20112;-75
2024/02/20 07:38:22;;;;;;;38.67;21.85;;;;;;;5.30;75.44;95336.00;4975371;28;20037;-75
2024/02/20 07:40:48;;;;;;;36.97;20.52;;;;;;;5.50;74.51;95336.66;5009661;28;20465;-75
2024/02/20 07:43:13;;;;;;;34.10;19.55;;;;;;;5.23;75.28;95323.50;5008097;28;20026;-75
2024/02/20 07:45:39;;;;;;;35.10;19.25;;;;;;;5.37;73.73;95298.66;5008153;28;20041;-75
2024/02/20 07:48:05;;;;;;;34.42;19.85;;;;;;;5.52;73.90;95333.09;5009588;28;20029;-75
2024/02/20 07:50:30;;;;;;;31.75;19.15;;;;;;;5.59;74.42;95333.56;4992089;28;20116;-75
2024/02/20 07:52:56;;;;;;;33.33;20.30;;;;;;;5.46;74.79;95312.81;4991531;28;20416;-75
2024/02/20 07:55:21;;;;;;;31.63;18.77;;;;;;;5.82;73.90;95332.28;4991635;28;20034;-75
2024/02/20 07:57:46;;;;;;;31.48;19.75;;;;;;;5.85;72.13;95297.75;5008100;28;20038;-75
2024/02/20 08:00:13;;;;;;;39.35;19.58;;;;;;;6.14;72.06;95327.94;5008972;28;20026;-76
2024/02/20 08:02:39;;;;;;;38.03;21.27;;;;;;;6.02;72.06;95318.31;5007744;28;20029;-75
2024/02/20 08:05:05;;;;;;;35.03;19.05;;;;;;;6.26;71.08;95316.91;4991773;28;20041;-75
2024/02/20 08:07:31;;;;;;;29.98;18.13;;;;;;;6.46;70.37;95320.06;4993414;28;20033;-75
2024/02/20 08:09:57;;;;;;;38.10;20.02;;;;;;;6.14;70.54;95316.78;5009658;28;20092;-75
2024/02/20 08:12:22;;;;;;;33.03;19.00;;;;;;;6.44;69.71;95325.34;5009816;28;20026;-76
2024/02/20 08:14:48;;;;;;;33.95;19.25;;;;;;;6.06;70.45;95324.97;4993077;28;20496;-76
2024/02/20 08:17:13;;;;;;;31.27;18.45;;;;;;;5.88;70.91;95324.22;5010933;28;20033;-76
2024/02/20 08:19:40;;;;;;;31.67;19.10;;;;;;;5.72;71.33;95318.28;5010821;28;20054;-76
2024/02/20 08:22:05;;;;;;;38.80;19.90;;;;;;;5.56;71.84;95326.00;5011049;28;20056;-76
2024/02/20 08:24:31;;;;;;;31.40;19.73;;;;;;;6.02;70.44;95331.22;5010721;28;20038;-76
2024/02/20 08:26:57;;;;;;;34.17;19.23;;;;;;;5.86;70.77;95340.69;5010883;28;20022;-76
2024/02/20 08:29:24;;;;;;;39.42;20.75;;;;;;;5.43;71.93;95335.31;5010425;28;20042;-76
2024/02/20 08:31:49;;;;;;;43.75;24.60;;;;;;;5.47;72.07;95331.66;5014596;28;20489;-75
2024/02/20 08:34:15;;;;;;;43.05;21.23;;;;;;;5.18;72.45;95316.03;4996836;28;20045;-75
2024/02/20 08:36:40;;;;;;;32.97;20.15;;;;;;;5.48;72.12;95343.63;4996707;28;20065;-76
2024/02/20 08:39:06;;;;;;;35.97;19.80;;;;;;;5.73;70.91;95337.97;5014356;28;20030;-76
2024/02/20 08:41:32;;;;;;;34.55;19.52;;;;;;;5.26;72.25;95311.28;5013222;28;20037;-76
2024/02/20 08:43:58;;;;;;;33.13;19.63;;;;;;;5.55;71.71;95342.41;5014079;28;20022;-75
2024/02/20 08:46:24;;;;;;;34.33;19.55;;;;;;;5.58;71.66;95345.63;5014298;28;20034;-76
2024/02/20 08:48:51;;;;;;;31.95;17.55;;;;;;;5.52;72.25;95345.16;4996760;28;20508;-76
2024/02/20 08:51:17;;;;;;;30.65;17.33;;;;;;;5.57;71.85;95331.09;5013134;28;20042;-76
2024/02/20 08:53:43;;;;;;;30.63;18.17;;;;;;;5.72;71.39;95342.28;5012689;28;20030;-75
2024/02/20 08:56:09;;;;;;;29.88;18.27;;;;;;;5.45;71.30;95339.47;5013061;28;20034;-76
2024/02/20 08:58:34;;;;;;;28.58;16.02;;;;;;;5.83;70.59;95334.78;5012899;28;20080;-75
2024/02/20 09:00:59;;;;;;;34.25;17.48;;;;;;;6.02;69.93;95349.28;4996432;28;20124;-76
2024/02/20 09:03:28;;;;;;;30.98;18.13;;;;;;;6.30;68.94;95332.22;5013880;28;20038;-76
2024/02/20 09:05:54;;;;;;;27.75;16.13;;;;;;;6.55;69.15;95342.78;5012880;28;20037;-76
2024/02/20 09:08:19;;;;;;;33.80;18.92;;;;;;;6.26;69.98;95347.03;4996139;28;20553;-75
2024/02/20 09:10:45;;;;;;;33.03;18.52;;;;;;;6.18;69.72;95344.88;5012633;28;20026;-76
2024/02/20 09:13:10;;;;;;;31.27;18.70;;;;;;;6.69;67.27;95340.22;5012399;28;20044;-76
2024/02/20 09:15:35;;;;;;;27.92;16.73;;;;;;;6.83;66.46;95336.81;5012649;28;20109;-76
2024/02/20 09:18:01;;;;;;;29.85;17.65;;;;;;;6.83;66.82;95331.66;5013709;28;20057;-76
2024/02/20 09:20:27;;;;;;;30.17;18.67;;;;;;;6.77;68.48;95341.50;4996157;28;20491;-76
2024/02/20 09:22:52;;;;;;;30.73;18.52;;;;;;;6.95;66.06;95324.91;4995993;28;20022;-76
2024/02/20 09:25:18;;;;;;;30.48;17.13;;;;;;;7.23;64.41;95331.81;5013766;28;20401;-76
2024/02/20 09:27:43;;;;;;;27.33;16.38;;;;;;;7.22;65.35;95326.75;5012302;28;20416;-76
2024/02/20 09:30:10;;;;;;;27.75;17.55;;;;;;;7.27;66.06;95325.53;4995833;28;20030;-76
2024/02/20 09:32:37;;;;;;;32.67;17.38;;;;;;;7.35;65.20;95320.72;5012146;28;20034;-76
2024/02/20 09:35:03;;;;;;;27.63;17.25;;;;;;;7.43;63.80;95309.88;5013125;28;20124;-76
2024/02/20 09:37:28;;;;;;;28.85;16.88;;;;;;;7.35;64.67;95318.16;4995776;28;20419;-76
2024/02/20 09:39:54;;;;;;;29.67;15.95;;;;;;;7.58;63.47;95319.28;5011966;28;20104;-76
2024/02/20 09:42:27;;;;;;;26.98;16.40;;;;;;;7.55;64.63;95316.91;5012661;28;20030;-76
2024/02/20 09:44:56;;;;;;;27.17;15.82;;;;;;;7.60;62.20;95307.09;5011990;28;20092;-76
2024/02/20 09:47:22;;;;;;;25.63;15.90;;;;;;;7.58;63.56;95308.94;4996106;28;20091;-76
2024/02/20 09:49:53;;;;;;;29.95;15.43;;;;;;;7.56;63.35;95313.38;4979314;28;20041;-76
2024/02/20 09:52:19;;;;;;;17.65;10.63;;;;;;;7.81;54.25;95273.84;5011759;28;20030;-76
2024/02/20 09:54:45;;;;;;;13.50;9.20;;;;;;;8.34;53.76;95310.09;4995373;28;20129;-76
2024/02/20 09:57:10;;;;;;;15.30;9.20;;;;;;;8.42;52.08;95310.44;5011743;28;20037;-76
2024/02/20 09:59:36;;;;;;;14.48;9.70;;;;;;;8.58;46.32;95310.25;4995097;28;20037;-76
2024/02/20 10:02:01;;;;;;;15.18;10.15;;;;;;;8.46;50.84;95311.06;5011412;28;20029;-76
2024/02/20 10:04:32;;;;;;;12.40;8.70;;;;;;;8.42;46.94;95289.72;5012632;28;20041;-76
2024/02/20 10:07:03;;;;;;;17.27;10.77;;;;;;;7.99;49.58;95297.69;4995897;28;20026;-76
2024/02/20 10:09:28;;;;;;;22.88;12.40;;;;;;;7.81;52.10;95293.72;5012682;28;20073;-76
2024/02/20 10:11:53;;;;;;;27.05;17.15;;;;;;;7.73;57.42;95295.97;5011478;28;20034;-76
2024/02/20 10:14:28;;;;;;;30.00;17.05;;;;;;;7.65;57.04;95285.28;5011047;28;20096;-76
2024/02/20 10:17:03;;;;;;;28.27;16.73;;;;;;;7.39;58.21;95278.25;4995196;28;20037;-76
2024/02/20 10:19:29;;;;;;;33.72;18.35;;;;;;;7.61;59.18;95282.88;5011409;28;20033;-76
2024/02/20 10:21:54;;;;;;;32.22;17.38;;;;;;;7.47;59.58;95290.69;5011362;28;20037;-76
2024/02/20 10:24:20;;;;;;;34.90;18.55;;;;;;;7.45;60.65;95286.53;5011135;28;20053;-76
2024/02/20 10:26:46;;;;;;;32.83;18.63;;;;;;;7.27;60.47;95278.16;5012389;28;20116;-76
2024/02/20 10:29:11;;;;;;;33.70;19.05;;;;;;;7.21;61.84;95273.38;4994826;28;20029;-76
2024/02/20 10:31:37;;;;;;;33.45;18.63;;;;;;;7.20;61.34;95271.75;4994736;28;20034;-76
2024/02/20 10:34:02;;;;;;;31.70;19.40;;;;;;;7.46;60.85;95283.03;4994520;28;20507;-76
2024/02/20 10:36:28;;;;;;;33.38;18.60;;;;;;;7.46;61.36;95281.25;5010952;28;20555;-76
2024/02/20 10:39:12;;;;;;;32.72;18.88;;;;;;;7.64;59.37;95281.88;5011072;28;20034;-76
2024/02/20 10:41:37;;;;;;;31.92;17.30;;;;;;;7.76;58.87;95278.47;5010795;28;20045;-76
2024/02/20 10:44:03;;;;;;;30.77;18.90;;;;;;;7.64;60.20;95284.44;4994681;28;20706;-76
2024/02/20 10:46:38;;;;;;;32.97;18.13;;;;;;;7.80;58.97;95271.34;4994479;28;20404;-76
2024/02/20 10:49:19;;;;;;;31.48;16.98;;;;;;;7.70;57.90;95275.47;4978028;28;20026;-76
2024/02/20 10:51:45;;;;;;;25.77;15.60;;;;;;;7.67;55.94;95224.78;4994661;28;20420;-76
2024/02/20 10:54:10;;;;;;;26.77;16.25;;;;;;;8.14;56.46;95253.66;5009773;28;20038;-76
2024/02/20 10:56:36;;;;;;;30.35;17.42;;;;;;;8.00;56.70;95252.78;5010435;28;20029;-76
2024/02/20 10:59:04;;;;;;;32.10;18.33;;;;;;;7.84;58.17;95252.94;4994188;28;20053;-76
2024/02/20 11:01:29;;;;;;;36.38;18.92;;;;;;;8.05;57.36;95250.75;5011784;28;20029;-76
2024/02/20 11:03:54;;;;;;;33.42;18.90;;;;;;;8.13;55.44;95242.44;5010359;28;20022;-76
2024/02/20 11:06:20;;;;;;;31.15;17.23;;;;;;;8.02;55.77;95238.00;4993898;28;20488;-76
2024/02/20 11:08:45;;;;;;;26.08;16.10;;;;;;;8.03;55.43;95225.88;4994094;28;20025;-76
2024/02/20 11:11:15;;;;;;;23.15;12.85;;;;;;;8.30;53.11;95241.31;5012167;28;20615;-76
2024/02/20 11:13:43;;;;;;;35.38;21.02;;;;;;;8.61;52.41;95242.72;5010454;28;20513;-77
2024/02/20 11:16:13;;;;;;;31.40;19.77;;;;;;;8.61;52.10;95244.47;5011988;28;20038;-76
2024/02/20 11:18:49;;;;;;;28.17;18.00;;;;;;;8.87;49.74;95238.31;5010354;28;20025;-76